sensor_id;sensor_type;location;lat;lon;timestamp;P1;durP1;ratioP1;P2;durP2;ratioP2
9986;SDS011;5033;46.310;11.214;2022-10-16T00:01:58;19.52;;;16.85;;
9986;SDS011;5033;46.310;11.214;2022-10-16T00:04:25;19.75;;;16.50;;
9986;SDS011;5033;46.310;11.214;2022-10-16T00:06:54;19.85;;;16.58;;
9986;SDS011;5033;46.310;11.214;2022-10-16T00:09:22;18.27;;;16.35;;
9986;SDS011;5033;46.310;11.214;2022-10-16T00:11:50;17.48;;;15.52;;
9986;SDS011;5033;46.310;11.214;2022-10-16T00:14:17;21.05;;;17.05;;
9986;SDS011;5033;46.310;11.214;2022-10-16T00:16:45;20.75;;;17.92;;
9986;SDS011;5033;46.310;11.214;2022-10-16T00:19:12;21.27;;;18.85;;
9986;SDS011;5033;46.310;11.214;2022-10-16T00:21:40;20.55;;;18.38;;
9986;SDS011;5033;46.310;11.214;2022-10-16T00:24:09;18.98;;;16.95;;
9986;SDS011;5033;46.310;11.214;2022-10-16T00:26:37;19.98;;;17.75;;
9986;SDS011;5033;46.310;11.214;2022-10-16T00:29:06;21.90;;;17.77;;
9986;SDS011;5033;46.310;11.214;2022-10-16T00:31:34;21.20;;;18.58;;
9986;SDS011;5033;46.310;11.214;2022-10-16T00:34:01;21.10;;;18.75;;
9986;SDS011;5033;46.310;11.214;2022-10-16T00:36:29;24.55;;;20.20;;
9986;SDS011;5033;46.310;11.214;2022-10-16T00:38:57;22.95;;;18.85;;
9986;SDS011;5033;46.310;11.214;2022-10-16T00:41:27;23.58;;;19.52;;
9986;SDS011;5033;46.310;11.214;2022-10-16T00:43:56;21.20;;;18.40;;
9986;SDS011;5033;46.310;11.214;2022-10-16T00:46:25;24.80;;;20.80;;
9986;SDS011;5033;46.310;11.214;2022-10-16T00:48:56;23.92;;;20.67;;
9986;SDS011;5033;46.310;11.214;2022-10-16T00:51:28;22.13;;;19.02;;
9986;SDS011;5033;46.310;11.214;2022-10-16T00:54:04;22.23;;;18.17;;
9986;SDS011;5033;46.310;11.214;2022-10-16T00:56:37;22.90;;;18.05;;
9986;SDS011;5033;46.310;11.214;2022-10-16T00:59:06;19.85;;;17.75;;
9986;SDS011;5033;46.310;11.214;2022-10-16T01:01:40;18.75;;;16.60;;
9986;SDS011;5033;46.310;11.214;2022-10-16T01:04:07;21.23;;;18.20;;
9986;SDS011;5033;46.310;11.214;2022-10-16T01:06:35;29.52;;;22.45;;
9986;SDS011;5033;46.310;11.214;2022-10-16T01:09:10;23.45;;;20.55;;
9986;SDS011;5033;46.310;11.214;2022-10-16T01:11:44;25.77;;;20.50;;
9986;SDS011;5033;46.310;11.214;2022-10-16T01:14:21;27.55;;;22.48;;
9986;SDS011;5033;46.310;11.214;2022-10-16T01:16:53;27.13;;;22.00;;
9986;SDS011;5033;46.310;11.214;2022-10-16T01:19:26;26.65;;;22.05;;
9986;SDS011;5033;46.310;11.214;2022-10-16T01:22:18;26.40;;;22.17;;
9986;SDS011;5033;46.310;11.214;2022-10-16T01:24:48;25.20;;;21.05;;
9986;SDS011;5033;46.310;11.214;2022-10-16T01:27:18;24.65;;;21.40;;
9986;SDS011;5033;46.310;11.214;2022-10-16T01:29:52;24.60;;;20.35;;
9986;SDS011;5033;46.310;11.214;2022-10-16T01:32:25;26.17;;;21.10;;
9986;SDS011;5033;46.310;11.214;2022-10-16T01:34:58;24.58;;;20.00;;
9986;SDS011;5033;46.310;11.214;2022-10-16T01:37:32;24.25;;;20.85;;
9986;SDS011;5033;46.310;11.214;2022-10-16T01:40:02;24.00;;;20.33;;
9986;SDS011;5033;46.310;11.214;2022-10-16T01:42:36;24.23;;;20.00;;
9986;SDS011;5033;46.310;11.214;2022-10-16T01:45:07;24.50;;;21.58;;
9986;SDS011;5033;46.310;11.214;2022-10-16T01:47:38;25.25;;;20.70;;
9986;SDS011;5033;46.310;11.214;2022-10-16T01:50:07;24.90;;;21.48;;
9986;SDS011;5033;46.310;11.214;2022-10-16T01:52:35;26.48;;;21.25;;
9986;SDS011;5033;46.310;11.214;2022-10-16T01:55:06;26.17;;;21.40;;
9986;SDS011;5033;46.310;11.214;2022-10-16T01:57:38;24.17;;;20.88;;
9986;SDS011;5033;46.310;11.214;2022-10-16T02:00:10;26.13;;;21.83;;
9986;SDS011;5033;46.310;11.214;2022-10-16T02:02:40;23.70;;;19.90;;
9986;SDS011;5033;46.310;11.214;2022-10-16T02:05:10;23.20;;;20.23;;
9986;SDS011;5033;46.310;11.214;2022-10-16T02:07:42;23.58;;;18.98;;
9986;SDS011;5033;46.310;11.214;2022-10-16T02:10:09;23.52;;;20.27;;
9986;SDS011;5033;46.310;11.214;2022-10-16T02:12:38;22.00;;;18.30;;
9986;SDS011;5033;46.310;11.214;2022-10-16T02:15:10;25.55;;;19.98;;
9986;SDS011;5033;46.310;11.214;2022-10-16T02:17:38;24.45;;;19.80;;
9986;SDS011;5033;46.310;11.214;2022-10-16T02:20:05;25.67;;;21.10;;
9986;SDS011;5033;46.310;11.214;2022-10-16T02:22:33;23.55;;;19.90;;
9986;SDS011;5033;46.310;11.214;2022-10-16T02:25:03;21.30;;;18.08;;
9986;SDS011;5033;46.310;11.214;2022-10-16T02:27:34;21.88;;;18.75;;
9986;SDS011;5033;46.310;11.214;2022-10-16T02:30:06;23.40;;;19.08;;
9986;SDS011;5033;46.310;11.214;2022-10-16T02:32:39;24.42;;;19.13;;
9986;SDS011;5033;46.310;11.214;2022-10-16T02:35:09;22.42;;;18.90;;
9986;SDS011;5033;46.310;11.214;2022-10-16T02:37:37;22.80;;;19.52;;
9986;SDS011;5033;46.310;11.214;2022-10-16T02:40:07;24.00;;;19.75;;
9986;SDS011;5033;46.310;11.214;2022-10-16T02:42:35;23.55;;;20.00;;
9986;SDS011;5033;46.310;11.214;2022-10-16T02:45:04;22.80;;;18.98;;
9986;SDS011;5033;46.310;11.214;2022-10-16T02:47:34;22.88;;;18.23;;
9986;SDS011;5033;46.310;11.214;2022-10-16T02:50:02;23.27;;;20.67;;
9986;SDS011;5033;46.310;11.214;2022-10-16T02:52:29;26.08;;;20.55;;
9986;SDS011;5033;46.310;11.214;2022-10-16T02:54:56;26.60;;;19.52;;
9986;SDS011;5033;46.310;11.214;2022-10-16T02:57:23;23.02;;;19.65;;
9986;SDS011;5033;46.310;11.214;2022-10-16T02:59:51;20.80;;;17.65;;
9986;SDS011;5033;46.310;11.214;2022-10-16T03:02:19;22.77;;;18.65;;
9986;SDS011;5033;46.310;11.214;2022-10-16T03:04:46;22.30;;;19.17;;
9986;SDS011;5033;46.310;11.214;2022-10-16T03:07:13;24.65;;;20.10;;
9986;SDS011;5033;46.310;11.214;2022-10-16T03:09:40;20.60;;;18.40;;
9986;SDS011;5033;46.310;11.214;2022-10-16T03:12:08;21.75;;;19.30;;
9986;SDS011;5033;46.310;11.214;2022-10-16T03:14:37;20.00;;;17.50;;
9986;SDS011;5033;46.310;11.214;2022-10-16T03:17:04;25.30;;;20.80;;
9986;SDS011;5033;46.310;11.214;2022-10-16T03:19:33;23.67;;;20.02;;
9986;SDS011;5033;46.310;11.214;2022-10-16T03:22:00;24.25;;;19.92;;
9986;SDS011;5033;46.310;11.214;2022-10-16T03:24:28;27.08;;;21.05;;
9986;SDS011;5033;46.310;11.214;2022-10-16T03:26:55;25.20;;;21.55;;
9986;SDS011;5033;46.310;11.214;2022-10-16T03:29:22;24.13;;;21.10;;
9986;SDS011;5033;46.310;11.214;2022-10-16T03:31:50;21.73;;;19.02;;
9986;SDS011;5033;46.310;11.214;2022-10-16T03:34:18;22.17;;;18.27;;
9986;SDS011;5033;46.310;11.214;2022-10-16T03:36:46;22.65;;;19.48;;
9986;SDS011;5033;46.310;11.214;2022-10-16T03:39:13;23.08;;;18.85;;
9986;SDS011;5033;46.310;11.214;2022-10-16T03:41:40;22.27;;;18.50;;
9986;SDS011;5033;46.310;11.214;2022-10-16T03:44:07;22.30;;;18.60;;
9986;SDS011;5033;46.310;11.214;2022-10-16T03:46:35;21.48;;;18.48;;
9986;SDS011;5033;46.310;11.214;2022-10-16T03:49:02;23.85;;;19.95;;
9986;SDS011;5033;46.310;11.214;2022-10-16T03:51:29;23.42;;;19.65;;
9986;SDS011;5033;46.310;11.214;2022-10-16T03:53:57;24.85;;;19.15;;
9986;SDS011;5033;46.310;11.214;2022-10-16T03:56:24;23.52;;;19.75;;
9986;SDS011;5033;46.310;11.214;2022-10-16T03:58:51;22.60;;;19.42;;
9986;SDS011;5033;46.310;11.214;2022-10-16T04:01:18;24.52;;;19.17;;
9986;SDS011;5033;46.310;11.214;2022-10-16T04:03:45;24.25;;;21.38;;
9986;SDS011;5033;46.310;11.214;2022-10-16T04:06:12;25.23;;;19.92;;
9986;SDS011;5033;46.310;11.214;2022-10-16T04:08:41;23.77;;;19.35;;
9986;SDS011;5033;46.310;11.214;2022-10-16T04:11:10;24.25;;;18.65;;
9986;SDS011;5033;46.310;11.214;2022-10-16T04:13:37;25.88;;;21.63;;
9986;SDS011;5033;46.310;11.214;2022-10-16T04:16:04;23.73;;;20.13;;
9986;SDS011;5033;46.310;11.214;2022-10-16T04:18:32;22.00;;;19.08;;
9986;SDS011;5033;46.310;11.214;2022-10-16T04:21:02;25.50;;;19.90;;
9986;SDS011;5033;46.310;11.214;2022-10-16T04:23:29;26.08;;;20.75;;
9986;SDS011;5033;46.310;11.214;2022-10-16T04:25:56;24.60;;;20.00;;
9986;SDS011;5033;46.310;11.214;2022-10-16T04:28:25;24.90;;;20.13;;
9986;SDS011;5033;46.310;11.214;2022-10-16T04:30:52;25.02;;;20.70;;
9986;SDS011;5033;46.310;11.214;2022-10-16T04:33:19;23.00;;;19.52;;
9986;SDS011;5033;46.310;11.214;2022-10-16T04:35:46;20.52;;;17.83;;
9986;SDS011;5033;46.310;11.214;2022-10-16T04:38:13;22.42;;;18.88;;
9986;SDS011;5033;46.310;11.214;2022-10-16T04:40:41;25.35;;;19.65;;
9986;SDS011;5033;46.310;11.214;2022-10-16T04:43:08;29.27;;;23.08;;
9986;SDS011;5033;46.310;11.214;2022-10-16T04:45:37;21.95;;;19.33;;
9986;SDS011;5033;46.310;11.214;2022-10-16T04:48:04;20.42;;;18.20;;
9986;SDS011;5033;46.310;11.214;2022-10-16T04:50:31;23.92;;;20.20;;
9986;SDS011;5033;46.310;11.214;2022-10-16T04:52:58;22.38;;;19.75;;
9986;SDS011;5033;46.310;11.214;2022-10-16T04:55:25;24.05;;;18.88;;
9986;SDS011;5033;46.310;11.214;2022-10-16T04:57:52;22.95;;;19.50;;
9986;SDS011;5033;46.310;11.214;2022-10-16T05:00:19;20.05;;;17.85;;
9986;SDS011;5033;46.310;11.214;2022-10-16T05:02:49;20.98;;;18.00;;
9986;SDS011;5033;46.310;11.214;2022-10-16T05:05:16;19.77;;;17.00;;
9986;SDS011;5033;46.310;11.214;2022-10-16T05:07:44;21.83;;;17.55;;
9986;SDS011;5033;46.310;11.214;2022-10-16T05:10:11;20.30;;;17.70;;
9986;SDS011;5033;46.310;11.214;2022-10-16T05:12:38;19.35;;;16.95;;
9986;SDS011;5033;46.310;11.214;2022-10-16T05:15:06;19.77;;;16.85;;
9986;SDS011;5033;46.310;11.214;2022-10-16T05:17:34;17.95;;;16.00;;
9986;SDS011;5033;46.310;11.214;2022-10-16T05:20:02;20.80;;;17.88;;
9986;SDS011;5033;46.310;11.214;2022-10-16T05:22:30;21.23;;;18.30;;
9986;SDS011;5033;46.310;11.214;2022-10-16T05:24:57;20.92;;;17.73;;
9986;SDS011;5033;46.310;11.214;2022-10-16T05:27:24;21.15;;;18.00;;
9986;SDS011;5033;46.310;11.214;2022-10-16T05:29:51;20.67;;;18.17;;
9986;SDS011;5033;46.310;11.214;2022-10-16T05:32:18;25.75;;;20.65;;
9986;SDS011;5033;46.310;11.214;2022-10-16T05:34:45;22.63;;;18.25;;
9986;SDS011;5033;46.310;11.214;2022-10-16T05:37:14;20.10;;;16.77;;
9986;SDS011;5033;46.310;11.214;2022-10-16T05:39:41;18.90;;;16.75;;
9986;SDS011;5033;46.310;11.214;2022-10-16T05:42:08;20.67;;;17.67;;
9986;SDS011;5033;46.310;11.214;2022-10-16T05:44:35;19.80;;;17.45;;
9986;SDS011;5033;46.310;11.214;2022-10-16T05:47:02;20.23;;;17.20;;
9986;SDS011;5033;46.310;11.214;2022-10-16T05:49:29;19.08;;;16.83;;
9986;SDS011;5033;46.310;11.214;2022-10-16T05:51:58;20.33;;;17.33;;
9986;SDS011;5033;46.310;11.214;2022-10-16T05:54:33;21.55;;;17.25;;
9986;SDS011;5033;46.310;11.214;2022-10-16T05:57:00;22.05;;;17.92;;
9986;SDS011;5033;46.310;11.214;2022-10-16T05:59:27;18.13;;;16.02;;
9986;SDS011;5033;46.310;11.214;2022-10-16T06:01:54;18.83;;;16.75;;
9986;SDS011;5033;46.310;11.214;2022-10-16T06:04:21;19.20;;;15.93;;
9986;SDS011;5033;46.310;11.214;2022-10-16T06:06:49;18.50;;;14.90;;
9986;SDS011;5033;46.310;11.214;2022-10-16T06:09:16;17.38;;;15.15;;
9986;SDS011;5033;46.310;11.214;2022-10-16T06:11:44;18.83;;;16.15;;
9986;SDS011;5033;46.310;11.214;2022-10-16T06:14:11;17.52;;;15.73;;
9986;SDS011;5033;46.310;11.214;2022-10-16T06:16:38;16.92;;;14.75;;
9986;SDS011;5033;46.310;11.214;2022-10-16T06:19:06;16.88;;;15.15;;
9986;SDS011;5033;46.310;11.214;2022-10-16T06:21:34;16.95;;;15.20;;
9986;SDS011;5033;46.310;11.214;2022-10-16T06:24:01;17.88;;;15.77;;
9986;SDS011;5033;46.310;11.214;2022-10-16T06:26:29;16.90;;;14.93;;
9986;SDS011;5033;46.310;11.214;2022-10-16T06:28:58;23.65;;;19.10;;
9986;SDS011;5033;46.310;11.214;2022-10-16T06:31:26;18.35;;;16.42;;
9986;SDS011;5033;46.310;11.214;2022-10-16T06:33:56;19.95;;;17.52;;
9986;SDS011;5033;46.310;11.214;2022-10-16T06:36:24;21.75;;;17.17;;
9986;SDS011;5033;46.310;11.214;2022-10-16T06:38:51;17.92;;;16.08;;
9986;SDS011;5033;46.310;11.214;2022-10-16T06:41:20;17.23;;;15.43;;
9986;SDS011;5033;46.310;11.214;2022-10-16T06:43:48;16.92;;;15.05;;
9986;SDS011;5033;46.310;11.214;2022-10-16T06:46:17;17.95;;;16.05;;
9986;SDS011;5033;46.310;11.214;2022-10-16T06:48:46;17.00;;;15.27;;
9986;SDS011;5033;46.310;11.214;2022-10-16T06:51:14;16.85;;;15.20;;
9986;SDS011;5033;46.310;11.214;2022-10-16T06:53:43;19.75;;;17.65;;
9986;SDS011;5033;46.310;11.214;2022-10-16T06:56:14;17.30;;;14.93;;
9986;SDS011;5033;46.310;11.214;2022-10-16T06:58:42;17.35;;;15.52;;
9986;SDS011;5033;46.310;11.214;2022-10-16T07:01:10;17.55;;;15.75;;
9986;SDS011;5033;46.310;11.214;2022-10-16T07:03:40;20.23;;;17.55;;
9986;SDS011;5033;46.310;11.214;2022-10-16T07:06:08;18.23;;;16.33;;
9986;SDS011;5033;46.310;11.214;2022-10-16T07:08:38;18.30;;;16.45;;
9986;SDS011;5033;46.310;11.214;2022-10-16T07:11:06;17.00;;;15.30;;
9986;SDS011;5033;46.310;11.214;2022-10-16T07:13:35;18.63;;;16.48;;
9986;SDS011;5033;46.310;11.214;2022-10-16T07:16:05;18.98;;;17.05;;
9986;SDS011;5033;46.310;11.214;2022-10-16T07:18:34;23.25;;;20.77;;
9986;SDS011;5033;46.310;11.214;2022-10-16T07:21:05;19.35;;;17.38;;
9986;SDS011;5033;46.310;11.214;2022-10-16T07:23:33;21.13;;;18.92;;
9986;SDS011;5033;46.310;11.214;2022-10-16T07:26:00;21.38;;;19.25;;
9986;SDS011;5033;46.310;11.214;2022-10-16T07:28:28;21.50;;;19.27;;
9986;SDS011;5033;46.310;11.214;2022-10-16T07:30:59;22.08;;;19.80;;
9986;SDS011;5033;46.310;11.214;2022-10-16T07:33:27;20.80;;;18.58;;
9986;SDS011;5033;46.310;11.214;2022-10-16T07:35:54;21.40;;;19.17;;
9986;SDS011;5033;46.310;11.214;2022-10-16T07:38:23;19.58;;;17.55;;
9986;SDS011;5033;46.310;11.214;2022-10-16T07:40:55;20.42;;;18.38;;
9986;SDS011;5033;46.310;11.214;2022-10-16T07:43:23;18.23;;;16.35;;
9986;SDS011;5033;46.310;11.214;2022-10-16T07:45:51;19.50;;;17.55;;
9986;SDS011;5033;46.310;11.214;2022-10-16T07:48:18;21.10;;;18.88;;
9986;SDS011;5033;46.310;11.214;2022-10-16T07:50:45;21.52;;;19.33;;
9986;SDS011;5033;46.310;11.214;2022-10-16T07:53:12;21.95;;;19.77;;
9986;SDS011;5033;46.310;11.214;2022-10-16T07:55:41;23.48;;;21.02;;
9986;SDS011;5033;46.310;11.214;2022-10-16T07:58:09;23.15;;;20.60;;
9986;SDS011;5033;46.310;11.214;2022-10-16T08:00:36;27.20;;;24.38;;
9986;SDS011;5033;46.310;11.214;2022-10-16T08:03:03;26.63;;;23.60;;
9986;SDS011;5033;46.310;11.214;2022-10-16T08:05:31;24.02;;;21.13;;
9986;SDS011;5033;46.310;11.214;2022-10-16T08:07:59;22.60;;;20.20;;
9986;SDS011;5033;46.310;11.214;2022-10-16T08:10:26;25.65;;;22.83;;
9986;SDS011;5033;46.310;11.214;2022-10-16T08:12:56;23.90;;;21.33;;
9986;SDS011;5033;46.310;11.214;2022-10-16T08:15:23;25.70;;;22.00;;
9986;SDS011;5033;46.310;11.214;2022-10-16T08:17:57;24.65;;;20.63;;
9986;SDS011;5033;46.310;11.214;2022-10-16T08:20:25;23.25;;;20.90;;
9986;SDS011;5033;46.310;11.214;2022-10-16T08:22:53;25.90;;;23.00;;
9986;SDS011;5033;46.310;11.214;2022-10-16T08:25:20;23.58;;;21.02;;
9986;SDS011;5033;46.310;11.214;2022-10-16T08:27:48;26.85;;;23.85;;
9986;SDS011;5033;46.310;11.214;2022-10-16T08:30:17;24.52;;;21.95;;
9986;SDS011;5033;46.310;11.214;2022-10-16T08:32:45;23.00;;;20.58;;
9986;SDS011;5033;46.310;11.214;2022-10-16T08:35:12;24.27;;;21.83;;
9986;SDS011;5033;46.310;11.214;2022-10-16T08:37:40;23.33;;;20.88;;
9986;SDS011;5033;46.310;11.214;2022-10-16T08:40:12;25.70;;;22.92;;
9986;SDS011;5033;46.310;11.214;2022-10-16T08:42:51;26.33;;;23.55;;
9986;SDS011;5033;46.310;11.214;2022-10-16T08:45:34;23.15;;;20.85;;
9986;SDS011;5033;46.310;11.214;2022-10-16T08:48:17;23.90;;;21.35;;
9986;SDS011;5033;46.310;11.214;2022-10-16T08:50:49;24.35;;;21.95;;
9986;SDS011;5033;46.310;11.214;2022-10-16T08:53:18;24.60;;;22.00;;
9986;SDS011;5033;46.310;11.214;2022-10-16T08:55:49;26.10;;;23.35;;
9986;SDS011;5033;46.310;11.214;2022-10-16T08:58:18;26.25;;;23.25;;
9986;SDS011;5033;46.310;11.214;2022-10-16T09:00:47;27.48;;;24.65;;
9986;SDS011;5033;46.310;11.214;2022-10-16T09:03:24;29.20;;;25.10;;
9986;SDS011;5033;46.310;11.214;2022-10-16T09:06:10;26.73;;;23.67;;
9986;SDS011;5033;46.310;11.214;2022-10-16T09:08:56;24.20;;;21.70;;
9986;SDS011;5033;46.310;11.214;2022-10-16T09:11:44;22.58;;;20.27;;
9986;SDS011;5033;46.310;11.214;2022-10-16T09:14:31;23.40;;;20.90;;
9986;SDS011;5033;46.310;11.214;2022-10-16T09:17:11;22.33;;;20.02;;
9986;SDS011;5033;46.310;11.214;2022-10-16T09:19:49;23.75;;;21.30;;
9986;SDS011;5033;46.310;11.214;2022-10-16T09:22:20;21.45;;;19.23;;
9986;SDS011;5033;46.310;11.214;2022-10-16T09:24:51;23.02;;;19.10;;
9986;SDS011;5033;46.310;11.214;2022-10-16T09:27:18;21.40;;;19.10;;
9986;SDS011;5033;46.310;11.214;2022-10-16T09:29:45;23.33;;;20.90;;
9986;SDS011;5033;46.310;11.214;2022-10-16T09:32:14;23.45;;;20.88;;
9986;SDS011;5033;46.310;11.214;2022-10-16T09:34:45;21.92;;;19.65;;
9986;SDS011;5033;46.310;11.214;2022-10-16T09:37:16;22.05;;;19.73;;
9986;SDS011;5033;46.310;11.214;2022-10-16T09:39:46;20.50;;;18.40;;
9986;SDS011;5033;46.310;11.214;2022-10-16T09:42:15;21.45;;;19.25;;
9986;SDS011;5033;46.310;11.214;2022-10-16T09:44:46;22.05;;;19.75;;
9986;SDS011;5033;46.310;11.214;2022-10-16T09:47:16;20.50;;;18.38;;
9986;SDS011;5033;46.310;11.214;2022-10-16T09:49:53;21.55;;;19.35;;
9986;SDS011;5033;46.310;11.214;2022-10-16T09:52:22;21.33;;;19.08;;
9986;SDS011;5033;46.310;11.214;2022-10-16T09:54:50;19.45;;;17.52;;
9986;SDS011;5033;46.310;11.214;2022-10-16T09:57:18;18.88;;;16.95;;
9986;SDS011;5033;46.310;11.214;2022-10-16T09:59:47;21.65;;;19.42;;
9986;SDS011;5033;46.310;11.214;2022-10-16T10:02:18;23.27;;;20.77;;
9986;SDS011;5033;46.310;11.214;2022-10-16T10:04:50;25.17;;;21.55;;
9986;SDS011;5033;46.310;11.214;2022-10-16T10:07:21;23.83;;;20.67;;
9986;SDS011;5033;46.310;11.214;2022-10-16T10:09:51;21.88;;;19.60;;
9986;SDS011;5033;46.310;11.214;2022-10-16T10:12:20;20.05;;;17.95;;
9986;SDS011;5033;46.310;11.214;2022-10-16T10:14:50;26.15;;;23.38;;
9986;SDS011;5033;46.310;11.214;2022-10-16T10:17:20;25.08;;;21.67;;
9986;SDS011;5033;46.310;11.214;2022-10-16T10:19:50;21.00;;;18.77;;
9986;SDS011;5033;46.310;11.214;2022-10-16T10:22:19;22.77;;;20.30;;
9986;SDS011;5033;46.310;11.214;2022-10-16T10:24:56;22.33;;;19.73;;
9986;SDS011;5033;46.310;11.214;2022-10-16T10:27:37;25.10;;;21.73;;
9986;SDS011;5033;46.310;11.214;2022-10-16T10:30:10;21.27;;;19.08;;
9986;SDS011;5033;46.310;11.214;2022-10-16T10:32:47;24.17;;;20.33;;
9986;SDS011;5033;46.310;11.214;2022-10-16T10:35:22;24.02;;;21.45;;
9986;SDS011;5033;46.310;11.214;2022-10-16T10:38:00;22.00;;;19.60;;
9986;SDS011;5033;46.310;11.214;2022-10-16T10:40:39;23.33;;;20.65;;
9986;SDS011;5033;46.310;11.214;2022-10-16T10:43:17;23.45;;;21.00;;
9986;SDS011;5033;46.310;11.214;2022-10-16T10:45:54;24.83;;;22.25;;
9986;SDS011;5033;46.310;11.214;2022-10-16T10:48:31;22.02;;;19.75;;
9986;SDS011;5033;46.310;11.214;2022-10-16T10:51:15;21.90;;;19.73;;
9986;SDS011;5033;46.310;11.214;2022-10-16T10:53:49;24.65;;;21.30;;
9986;SDS011;5033;46.310;11.214;2022-10-16T10:56:29;21.95;;;19.67;;
9986;SDS011;5033;46.310;11.214;2022-10-16T10:59:09;22.88;;;20.52;;
9986;SDS011;5033;46.310;11.214;2022-10-16T11:01:59;22.83;;;19.15;;
9986;SDS011;5033;46.310;11.214;2022-10-16T11:07:36;20.15;;;18.08;;
9986;SDS011;5033;46.310;11.214;2022-10-16T11:10:09;18.20;;;16.30;;
9986;SDS011;5033;46.310;11.214;2022-10-16T11:12:42;20.33;;;18.23;;
9986;SDS011;5033;46.310;11.214;2022-10-16T11:15:12;18.92;;;16.88;;
9986;SDS011;5033;46.310;11.214;2022-10-16T11:17:44;20.50;;;18.27;;
9986;SDS011;5033;46.310;11.214;2022-10-16T11:20:16;20.05;;;17.98;;
9986;SDS011;5033;46.310;11.214;2022-10-16T11:22:50;20.27;;;18.08;;
9986;SDS011;5033;46.310;11.214;2022-10-16T11:25:23;19.25;;;17.25;;
9986;SDS011;5033;46.310;11.214;2022-10-16T11:27:54;19.33;;;15.68;;
9986;SDS011;5033;46.310;11.214;2022-10-16T11:30:24;17.83;;;16.00;;
9986;SDS011;5033;46.310;11.214;2022-10-16T11:33:00;18.70;;;16.65;;
9986;SDS011;5033;46.310;11.214;2022-10-16T11:35:38;18.10;;;16.20;;
9986;SDS011;5033;46.310;11.214;2022-10-16T11:38:13;19.00;;;17.10;;
9986;SDS011;5033;46.310;11.214;2022-10-16T11:40:45;16.98;;;15.18;;
9986;SDS011;5033;46.310;11.214;2022-10-16T11:43:17;15.38;;;13.85;;
9986;SDS011;5033;46.310;11.214;2022-10-16T11:45:51;12.85;;;11.55;;
9986;SDS011;5033;46.310;11.214;2022-10-16T11:48:23;15.23;;;11.90;;
9986;SDS011;5033;46.310;11.214;2022-10-16T11:50:57;13.80;;;12.13;;
9986;SDS011;5033;46.310;11.214;2022-10-16T11:53:37;13.02;;;11.73;;
9986;SDS011;5033;46.310;11.214;2022-10-16T11:56:12;13.85;;;12.55;;
9986;SDS011;5033;46.310;11.214;2022-10-16T11:58:44;14.60;;;12.70;;
9986;SDS011;5033;46.310;11.214;2022-10-16T12:01:20;11.88;;;10.65;;
9986;SDS011;5033;46.310;11.214;2022-10-16T12:03:56;13.85;;;12.55;;
9986;SDS011;5033;46.310;11.214;2022-10-16T12:06:31;11.68;;;9.90;;
9986;SDS011;5033;46.310;11.214;2022-10-16T12:09:05;12.82;;;10.52;;
9986;SDS011;5033;46.310;11.214;2022-10-16T12:11:38;10.45;;;9.50;;
9986;SDS011;5033;46.310;11.214;2022-10-16T12:14:06;8.85;;;8.07;;
9986;SDS011;5033;46.310;11.214;2022-10-16T12:16:51;9.55;;;8.65;;
9986;SDS011;5033;46.310;11.214;2022-10-16T12:19:20;11.90;;;10.70;;
9986;SDS011;5033;46.310;11.214;2022-10-16T12:21:49;8.82;;;8.02;;
9986;SDS011;5033;46.310;11.214;2022-10-16T12:24:26;9.15;;;8.25;;
9986;SDS011;5033;46.310;11.214;2022-10-16T12:26:58;12.32;;;9.77;;
9986;SDS011;5033;46.310;11.214;2022-10-16T12:29:28;8.48;;;7.68;;
9986;SDS011;5033;46.310;11.214;2022-10-16T12:32:02;8.52;;;7.60;;
9986;SDS011;5033;46.310;11.214;2022-10-16T12:34:35;9.38;;;8.52;;
9986;SDS011;5033;46.310;11.214;2022-10-16T12:37:10;12.65;;;11.23;;
9986;SDS011;5033;46.310;11.214;2022-10-16T12:39:42;11.30;;;10.13;;
9986;SDS011;5033;46.310;11.214;2022-10-16T12:42:22;12.68;;;11.20;;
9986;SDS011;5033;46.310;11.214;2022-10-16T12:44:58;14.27;;;12.88;;
9986;SDS011;5033;46.310;11.214;2022-10-16T12:47:35;11.85;;;10.63;;
9986;SDS011;5033;46.310;11.214;2022-10-16T12:52:51;10.15;;;9.15;;
9986;SDS011;5033;46.310;11.214;2022-10-16T12:55:20;12.43;;;11.23;;
9986;SDS011;5033;46.310;11.214;2022-10-16T12:57:59;16.48;;;13.82;;
9986;SDS011;5033;46.310;11.214;2022-10-16T13:00:38;17.80;;;15.68;;
9986;SDS011;5033;46.310;11.214;2022-10-16T13:06:23;17.27;;;11.13;;
9986;SDS011;5033;46.310;11.214;2022-10-16T13:09:10;15.68;;;14.18;;
9986;SDS011;5033;46.310;11.214;2022-10-16T13:12:00;12.68;;;11.35;;
9986;SDS011;5033;46.310;11.214;2022-10-16T13:14:48;11.18;;;10.15;;
9986;SDS011;5033;46.310;11.214;2022-10-16T13:17:47;11.68;;;10.55;;
9986;SDS011;5033;46.310;11.214;2022-10-16T13:20:22;11.25;;;10.13;;
9986;SDS011;5033;46.310;11.214;2022-10-16T13:22:58;11.45;;;10.35;;
9986;SDS011;5033;46.310;11.214;2022-10-16T13:25:36;12.20;;;11.10;;
9986;SDS011;5033;46.310;11.214;2022-10-16T13:28:12;10.93;;;9.93;;
9986;SDS011;5033;46.310;11.214;2022-10-16T13:30:40;13.48;;;11.98;;
9986;SDS011;5033;46.310;11.214;2022-10-16T13:33:13;12.80;;;11.52;;
9986;SDS011;5033;46.310;11.214;2022-10-16T13:35:47;12.38;;;11.07;;
9986;SDS011;5033;46.310;11.214;2022-10-16T13:38:16;10.15;;;9.15;;
9986;SDS011;5033;46.310;11.214;2022-10-16T13:40:49;11.63;;;10.52;;
9986;SDS011;5033;46.310;11.214;2022-10-16T13:43:19;11.43;;;10.32;;
9986;SDS011;5033;46.310;11.214;2022-10-16T13:45:53;12.90;;;11.70;;
9986;SDS011;5033;46.310;11.214;2022-10-16T13:48:22;14.93;;;12.38;;
9986;SDS011;5033;46.310;11.214;2022-10-16T13:50:58;11.38;;;10.27;;
9986;SDS011;5033;46.310;11.214;2022-10-16T13:53:26;12.45;;;9.48;;
9986;SDS011;5033;46.310;11.214;2022-10-16T13:55:53;10.68;;;9.60;;
9986;SDS011;5033;46.310;11.214;2022-10-16T13:58:21;9.68;;;8.85;;
9986;SDS011;5033;46.310;11.214;2022-10-16T14:00:55;9.60;;;8.70;;
9986;SDS011;5033;46.310;11.214;2022-10-16T14:03:24;8.10;;;7.32;;
9986;SDS011;5033;46.310;11.214;2022-10-16T14:05:52;8.65;;;7.85;;
9986;SDS011;5033;46.310;11.214;2022-10-16T14:08:22;7.95;;;7.25;;
9986;SDS011;5033;46.310;11.214;2022-10-16T14:10:51;7.90;;;7.10;;
9986;SDS011;5033;46.310;11.214;2022-10-16T14:13:22;7.85;;;7.15;;
9986;SDS011;5033;46.310;11.214;2022-10-16T14:15:56;9.40;;;8.52;;
9986;SDS011;5033;46.310;11.214;2022-10-16T14:18:25;9.52;;;8.63;;
9986;SDS011;5033;46.310;11.214;2022-10-16T14:20:54;9.80;;;8.40;;
9986;SDS011;5033;46.310;11.214;2022-10-16T14:23:29;9.80;;;8.77;;
9986;SDS011;5033;46.310;11.214;2022-10-16T14:26:05;9.05;;;8.20;;
9986;SDS011;5033;46.310;11.214;2022-10-16T14:28:40;10.48;;;8.48;;
9986;SDS011;5033;46.310;11.214;2022-10-16T14:31:22;9.00;;;8.15;;
9986;SDS011;5033;46.310;11.214;2022-10-16T14:33:54;8.88;;;8.05;;
9986;SDS011;5033;46.310;11.214;2022-10-16T14:36:21;12.57;;;10.80;;
9986;SDS011;5033;46.310;11.214;2022-10-16T14:38:52;13.00;;;11.55;;
9986;SDS011;5033;46.310;11.214;2022-10-16T14:41:25;12.70;;;11.40;;
9986;SDS011;5033;46.310;11.214;2022-10-16T14:43:55;11.75;;;10.55;;
9986;SDS011;5033;46.310;11.214;2022-10-16T14:46:28;10.32;;;9.20;;
9986;SDS011;5033;46.310;11.214;2022-10-16T14:48:59;10.30;;;8.93;;
9986;SDS011;5033;46.310;11.214;2022-10-16T14:51:30;8.20;;;7.40;;
9986;SDS011;5033;46.310;11.214;2022-10-16T14:53:57;8.82;;;7.10;;
9986;SDS011;5033;46.310;11.214;2022-10-16T14:56:24;9.77;;;8.80;;
9986;SDS011;5033;46.310;11.214;2022-10-16T14:58:56;8.32;;;7.53;;
9986;SDS011;5033;46.310;11.214;2022-10-16T15:01:24;8.88;;;7.40;;
9986;SDS011;5033;46.310;11.214;2022-10-16T15:03:51;8.40;;;7.63;;
9986;SDS011;5033;46.310;11.214;2022-10-16T15:06:19;8.75;;;7.95;;